Moscow, Ohio
Current Conditions -  °F | °C
As of 1:53 PM on Monday 20 Oct 2014 (Local Time) from KLUK Reporting Station
Broken Clouds Broken Clouds  
Wind Chill: 61°   Ceiling: 9000
Heat Index: 61°   Visibility: 10mi
Dew Point: 48°   Wind: 14mph
Humidity: 62%   Direction: 210°SSW
Pressure: 29.9"   Gusts: 23mph
Location:  38.86°N, 84.23°W
Report Text: KLUK 201753Z 21012G20KT 10SM BKN090 16/09 A2990 RMK AO2 SLP125 60000 T01610089 10161 20083 58030
Loading
Personal Weather Stations






























Interactive Weather Map
Tropical Storm Tracking
New forecast layout! Learn more

10-Day Weather Forecast

Advertisements
Track Severe Weather on mobile